ADDS METAR Data INFO
IDs: Format: Raw Decoded Include TAF

Data at: 0625 UTC 15 Dec 2017

KPGD 150553Z AUTO 16005KT 10SM SCT055 14/13 A3009 RMK AO2 SLP189 T01440128 10172 20122 58000
KPGD 150453Z AUTO 15006KT 10SM BKN055 15/13 A3011 RMK AO2 SLP195 T01500133 402330056
KPGD 150353Z AUTO 00000KT 10SM CLR 14/13 A3012 RMK AO2 SLP199 T01440128
KPGD 150253Z AUTO 17007KT 10SM CLR 14/12 A3009 RMK AO2 SLP190 T01390122 50003
KPGD 150153Z AUTO 18005KT 10SM OVC055 16/13 A3010 RMK AO2 SLP191 T01610133
KPGD 150053Z 20005KT 10SM CLR 15/12 A3009 RMK AO2 SLP188 T01500122
KPGD 142353Z 23005KT 10SM CLR 17/13 A3008 RMK AO2 SLP187 T01720128 10233 20172 53015
KPGD 142253Z 22007KT 10SM CLR 19/13 A3006 RMK AO2 SLP178 T01890128
KPGD 142153Z 24008KT 10SM CLR 21/12 A3005 RMK AO2 SLP176 T02060122
KPGD 142053Z 23008KT 10SM CLR 22/11 A3004 RMK AO2 SLP172 T02220106 56009
KPGD 141953Z 21010KT 10SM CLR 23/11 A3004 RMK AO2 SLP174 T02280111
KPGD 141853Z 24009KT 10SM CLR 23/11 A3005 RMK AO2 SLP175 T02330106
KPGD 141753Z 22009KT 10SM CLR 23/10 A3007 RMK AO2 SLP181 T02280100 10233 20094 58013
KPGD 141653Z 24008KT 10SM CLR 23/11 A3009 RMK AO2 SLP188 T02280111
KPGD 141553Z 18007KT 10SM CLR 21/12 A3011 RMK AO2 SLP195 T02110122
KPGD 141453Z 16009KT 10SM CLR 18/13 A3010 RMK AO2 SLP194 T01830128 51010
KPGD 141353Z 16008KT 10SM CLR 14/12 A3010 RMK AO2 SLP192 T01440117
KPGD 141253Z 15006KT 10SM CLR 11/09 A3009 RMK AO2 SLP189 T01110094
KPGD 141153Z 14004KT 10SM CLR 09/08 A3007 RMK AO2 SLP184 T00940078 10094 20056 53008
KPGD 141053Z 15005KT 10SM CLR 08/07 A3007 RMK AO2 SLP182 T00830067
KPGD 140953Z AUTO 13003KT 10SM CLR 09/08 A3005 RMK AO2 SLP176 T00940078
KPGD 140853Z AUTO 12004KT 10SM CLR 08/07 A3005 RMK AO2 SLP177 T00780067 57007
KPGD 140753Z AUTO 12003KT 9SM CLR 06/05 A3005 RMK AO2 SLP176 T00610050
KPGD 140653Z AUTO 15003KT 10SM CLR 07/06 A3007 RMK AO2 SLP184 T00720056
KPGD 140553Z AUTO 00000KT 8SM CLR 07/06 A3007 RMK AO2 SLP184 T00670056 10133 20061 58009
KPGD 140453Z AUTO 00000KT 10SM CLR 07/06 A3008 RMK AO2 SLP187 T00720061 401940072
KPGD 140353Z AUTO 11003KT 10SM CLR 07/06 A3010 RMK AO2 SLP193 T00720056
KPGD 140253Z AUTO 00000KT 10SM CLR 09/07 A3010 RMK AO2 SLP193 T00890067 58002
KPGD 140153Z AUTO 30004KT 10SM CLR 12/08 A3011 RMK AO2 SLP198 T01170078
KPGD 140053Z 33006KT 10SM CLR 11/07 A3012 RMK AO2 SLP200 T01060067
KPGD 132353Z 31007KT 10SM CLR 13/07 A3011 RMK AO2 SLP195 T01330067 10194 20133 53015
KPGD 132253Z 29006KT 10SM CLR 15/07 A3008 RMK AO2 SLP188 T01500067
KPGD 132153Z 31004KT 10SM CLR 18/04 A3008 RMK AO2 SLP185 T01780039
KPGD 132053Z 30005KT 10SM CLR 19/02 A3006 RMK AO2 SLP179 T01890017 56016
KPGD 131953Z 28005KT 10SM CLR 19/02 A3007 RMK AO2 SLP184 T01890022
KPGD 131853Z 30006KT 10SM CLR 19/03 A3009 RMK AO2 SLP188 T01890028